Weesatche, Texas
Current Conditions -  °F | °C
As of 2:51 AM on Thursday 23 Oct 2014 (Local Time) from KVCT Reporting Station
Haze Haze  
Wind Chill: 62°   Ceiling: Unl
Heat Index: 62°   Visibility: 6mi
Dew Point: 59°   Wind: 7mph
Humidity: 90%   Direction: 50°NE
Pressure: 30.06"   Gusts: NA
Location:  28.85°N, 97.45°W
Report Text: KVCT 230751Z AUTO 05006KT 6SM BR CLR 17/15 A3006 RMK AO2 SLP178 T01670150
Loading
Personal Weather Stations






























Interactive Weather Map
Tropical Storm Tracking
New forecast layout! Learn more

10-Day Weather Forecast

Advertisements
Track Severe Weather on mobile